sensor_id;sensor_type;location;lat;lon;timestamp;P1;durP1;ratioP1;P2;durP2;ratioP2
79670;SDS011;69137;50.878;8.050;2024-02-21T00:01:16;13.07;;;4.90;;
79670;SDS011;69137;50.878;8.050;2024-02-21T00:03:42;13.85;;;4.05;;
79670;SDS011;69137;50.878;8.050;2024-02-21T00:06:07;10.25;;;3.90;;
79670;SDS011;69137;50.878;8.050;2024-02-21T00:08:33;7.67;;;4.33;;
79670;SDS011;69137;50.878;8.050;2024-02-21T00:10:58;8.57;;;4.13;;
79670;SDS011;69137;50.878;8.050;2024-02-21T00:13:23;8.87;;;4.20;;
79670;SDS011;69137;50.878;8.050;2024-02-21T00:15:49;11.50;;;4.30;;
79670;SDS011;69137;50.878;8.050;2024-02-21T00:18:14;12.40;;;4.57;;
79670;SDS011;69137;50.878;8.050;2024-02-21T00:20:40;10.53;;;4.53;;
79670;SDS011;69137;50.878;8.050;2024-02-21T00:23:05;11.73;;;4.37;;
79670;SDS011;69137;50.878;8.050;2024-02-21T00:25:30;11.37;;;4.57;;
79670;SDS011;69137;50.878;8.050;2024-02-21T00:27:55;12.10;;;5.37;;
79670;SDS011;69137;50.878;8.050;2024-02-21T00:30:21;14.95;;;5.30;;
79670;SDS011;69137;50.878;8.050;2024-02-21T00:32:46;13.13;;;4.22;;
79670;SDS011;69137;50.878;8.050;2024-02-21T00:35:11;12.03;;;4.87;;
79670;SDS011;69137;50.878;8.050;2024-02-21T00:37:37;10.75;;;4.80;;
79670;SDS011;69137;50.878;8.050;2024-02-21T00:40:02;12.82;;;5.13;;
79670;SDS011;69137;50.878;8.050;2024-02-21T00:42:28;13.57;;;5.28;;
79670;SDS011;69137;50.878;8.050;2024-02-21T00:44:53;8.30;;;4.73;;
79670;SDS011;69137;50.878;8.050;2024-02-21T00:47:19;16.30;;;4.47;;
79670;SDS011;69137;50.878;8.050;2024-02-21T00:49:44;12.03;;;4.63;;
79670;SDS011;69137;50.878;8.050;2024-02-21T00:52:09;15.27;;;4.93;;
79670;SDS011;69137;50.878;8.050;2024-02-21T00:54:34;12.27;;;5.10;;
79670;SDS011;69137;50.878;8.050;2024-02-21T00:57:00;13.27;;;4.73;;
79670;SDS011;69137;50.878;8.050;2024-02-21T00:59:25;9.33;;;5.07;;
79670;SDS011;69137;50.878;8.050;2024-02-21T01:01:50;13.40;;;5.23;;
79670;SDS011;69137;50.878;8.050;2024-02-21T01:04:15;12.87;;;4.67;;
79670;SDS011;69137;50.878;8.050;2024-02-21T01:06:41;7.83;;;4.20;;
79670;SDS011;69137;50.878;8.050;2024-02-21T01:09:09;11.10;;;4.80;;
79670;SDS011;69137;50.878;8.050;2024-02-21T01:11:34;13.55;;;6.18;;
79670;SDS011;69137;50.878;8.050;2024-02-21T01:13:59;14.97;;;6.00;;
79670;SDS011;69137;50.878;8.050;2024-02-21T01:16:25;15.90;;;5.20;;
79670;SDS011;69137;50.878;8.050;2024-02-21T01:18:51;13.18;;;5.00;;
79670;SDS011;69137;50.878;8.050;2024-02-21T01:21:16;11.50;;;6.00;;
79670;SDS011;69137;50.878;8.050;2024-02-21T01:23:41;16.50;;;6.10;;
79670;SDS011;69137;50.878;8.050;2024-02-21T01:26:06;12.67;;;5.57;;
79670;SDS011;69137;50.878;8.050;2024-02-21T01:28:33;14.60;;;6.03;;
79670;SDS011;69137;50.878;8.050;2024-02-21T01:30:59;15.20;;;7.13;;
79670;SDS011;69137;50.878;8.050;2024-02-21T01:33:24;12.83;;;5.53;;
79670;SDS011;69137;50.878;8.050;2024-02-21T01:35:49;14.57;;;5.93;;
79670;SDS011;69137;50.878;8.050;2024-02-21T01:38:15;15.32;;;6.70;;
79670;SDS011;69137;50.878;8.050;2024-02-21T01:40:40;13.98;;;5.03;;
79670;SDS011;69137;50.878;8.050;2024-02-21T01:43:14;13.13;;;5.17;;
79670;SDS011;69137;50.878;8.050;2024-02-21T01:45:40;8.73;;;4.65;;
79670;SDS011;69137;50.878;8.050;2024-02-21T01:48:06;14.10;;;4.95;;
79670;SDS011;69137;50.878;8.050;2024-02-21T01:50:31;15.07;;;4.97;;
79670;SDS011;69137;50.878;8.050;2024-02-21T01:52:57;17.50;;;5.63;;
79670;SDS011;69137;50.878;8.050;2024-02-21T01:55:22;10.48;;;4.20;;
79670;SDS011;69137;50.878;8.050;2024-02-21T01:57:47;14.20;;;5.40;;
79670;SDS011;69137;50.878;8.050;2024-02-21T02:00:13;15.32;;;5.35;;
79670;SDS011;69137;50.878;8.050;2024-02-21T02:02:39;17.10;;;5.35;;
79670;SDS011;69137;50.878;8.050;2024-02-21T02:05:06;13.57;;;4.72;;
79670;SDS011;69137;50.878;8.050;2024-02-21T02:07:32;14.50;;;4.63;;
79670;SDS011;69137;50.878;8.050;2024-02-21T02:09:58;13.00;;;4.93;;
79670;SDS011;69137;50.878;8.050;2024-02-21T02:12:23;9.73;;;4.15;;
79670;SDS011;69137;50.878;8.050;2024-02-21T02:15:02;13.10;;;5.38;;
79670;SDS011;69137;50.878;8.050;2024-02-21T02:17:31;13.15;;;4.60;;
79670;SDS011;69137;50.878;8.050;2024-02-21T02:19:56;11.82;;;4.72;;
79670;SDS011;69137;50.878;8.050;2024-02-21T02:22:30;12.93;;;5.03;;
79670;SDS011;69137;50.878;8.050;2024-02-21T02:24:57;7.70;;;4.30;;
79670;SDS011;69137;50.878;8.050;2024-02-21T02:27:23;17.70;;;5.13;;
79670;SDS011;69137;50.878;8.050;2024-02-21T02:29:49;12.10;;;4.30;;
79670;SDS011;69137;50.878;8.050;2024-02-21T02:32:14;13.48;;;5.00;;
79670;SDS011;69137;50.878;8.050;2024-02-21T02:34:40;10.57;;;4.65;;
79670;SDS011;69137;50.878;8.050;2024-02-21T02:37:05;15.93;;;4.57;;
79670;SDS011;69137;50.878;8.050;2024-02-21T02:39:30;13.53;;;4.47;;
79670;SDS011;69137;50.878;8.050;2024-02-21T02:41:56;15.37;;;5.03;;
79670;SDS011;69137;50.878;8.050;2024-02-21T02:44:21;6.57;;;3.47;;
79670;SDS011;69137;50.878;8.050;2024-02-21T02:46:46;11.63;;;5.27;;
79670;SDS011;69137;50.878;8.050;2024-02-21T02:49:11;12.57;;;5.53;;
79670;SDS011;69137;50.878;8.050;2024-02-21T02:51:37;8.47;;;4.90;;
79670;SDS011;69137;50.878;8.050;2024-02-21T02:54:06;13.93;;;4.50;;
79670;SDS011;69137;50.878;8.050;2024-02-21T02:56:31;13.27;;;4.30;;
79670;SDS011;69137;50.878;8.050;2024-02-21T02:58:57;11.20;;;4.90;;
79670;SDS011;69137;50.878;8.050;2024-02-21T03:01:22;9.15;;;4.28;;
79670;SDS011;69137;50.878;8.050;2024-02-21T03:03:47;11.93;;;4.03;;
79670;SDS011;69137;50.878;8.050;2024-02-21T03:06:13;8.93;;;4.20;;
79670;SDS011;69137;50.878;8.050;2024-02-21T03:08:39;12.65;;;4.40;;
79670;SDS011;69137;50.878;8.050;2024-02-21T03:11:04;10.18;;;4.60;;
79670;SDS011;69137;50.878;8.050;2024-02-21T03:13:30;11.77;;;4.45;;
79670;SDS011;69137;50.878;8.050;2024-02-21T03:15:55;8.33;;;4.43;;
79670;SDS011;69137;50.878;8.050;2024-02-21T03:18:20;10.27;;;4.00;;
79670;SDS011;69137;50.878;8.050;2024-02-21T03:20:46;11.77;;;3.67;;
79670;SDS011;69137;50.878;8.050;2024-02-21T03:23:11;14.43;;;4.23;;
79670;SDS011;69137;50.878;8.050;2024-02-21T03:25:36;9.33;;;4.23;;
79670;SDS011;69137;50.878;8.050;2024-02-21T03:28:01;9.07;;;4.27;;
79670;SDS011;69137;50.878;8.050;2024-02-21T03:30:27;12.40;;;4.22;;
79670;SDS011;69137;50.878;8.050;2024-02-21T03:32:52;9.33;;;4.63;;
79670;SDS011;69137;50.878;8.050;2024-02-21T03:35:17;9.83;;;4.17;;
79670;SDS011;69137;50.878;8.050;2024-02-21T03:37:44;8.90;;;4.40;;
79670;SDS011;69137;50.878;8.050;2024-02-21T03:40:10;10.98;;;4.18;;
79670;SDS011;69137;50.878;8.050;2024-02-21T03:42:35;9.40;;;4.28;;
79670;SDS011;69137;50.878;8.050;2024-02-21T03:45:01;11.27;;;4.18;;
79670;SDS011;69137;50.878;8.050;2024-02-21T03:47:26;11.45;;;4.43;;
79670;SDS011;69137;50.878;8.050;2024-02-21T03:49:51;10.70;;;4.27;;
79670;SDS011;69137;50.878;8.050;2024-02-21T03:52:17;14.20;;;3.93;;
79670;SDS011;69137;50.878;8.050;2024-02-21T03:54:42;11.43;;;4.70;;
79670;SDS011;69137;50.878;8.050;2024-02-21T03:57:07;11.70;;;4.25;;
79670;SDS011;69137;50.878;8.050;2024-02-21T03:59:33;12.68;;;4.28;;
79670;SDS011;69137;50.878;8.050;2024-02-21T04:01:58;10.30;;;4.90;;
79670;SDS011;69137;50.878;8.050;2024-02-21T04:04:24;12.68;;;4.28;;
79670;SDS011;69137;50.878;8.050;2024-02-21T04:06:49;11.70;;;4.20;;
79670;SDS011;69137;50.878;8.050;2024-02-21T04:09:15;11.82;;;4.90;;
79670;SDS011;69137;50.878;8.050;2024-02-21T04:11:40;13.40;;;4.78;;
79670;SDS011;69137;50.878;8.050;2024-02-21T04:14:06;8.80;;;3.50;;
79670;SDS011;69137;50.878;8.050;2024-02-21T04:16:32;12.77;;;4.32;;
79670;SDS011;69137;50.878;8.050;2024-02-21T04:18:57;9.03;;;3.77;;
79670;SDS011;69137;50.878;8.050;2024-02-21T04:21:23;9.63;;;4.15;;
79670;SDS011;69137;50.878;8.050;2024-02-21T04:23:48;8.87;;;4.03;;
79670;SDS011;69137;50.878;8.050;2024-02-21T04:26:13;13.70;;;4.60;;
79670;SDS011;69137;50.878;8.050;2024-02-21T04:28:38;11.57;;;4.15;;
79670;SDS011;69137;50.878;8.050;2024-02-21T04:31:04;6.95;;;3.72;;
79670;SDS011;69137;50.878;8.050;2024-02-21T04:33:29;8.60;;;3.80;;
79670;SDS011;69137;50.878;8.050;2024-02-21T04:35:54;11.10;;;3.80;;
79670;SDS011;69137;50.878;8.050;2024-02-21T04:38:20;10.40;;;5.00;;
79670;SDS011;69137;50.878;8.050;2024-02-21T04:40:45;11.23;;;3.83;;
79670;SDS011;69137;50.878;8.050;2024-02-21T04:43:10;9.63;;;4.00;;
79670;SDS011;69137;50.878;8.050;2024-02-21T04:45:36;11.53;;;3.97;;
79670;SDS011;69137;50.878;8.050;2024-02-21T04:48:01;7.20;;;3.97;;
79670;SDS011;69137;50.878;8.050;2024-02-21T04:50:26;11.48;;;4.28;;
79670;SDS011;69137;50.878;8.050;2024-02-21T04:52:52;10.50;;;4.13;;
79670;SDS011;69137;50.878;8.050;2024-02-21T04:55:17;8.88;;;3.65;;
79670;SDS011;69137;50.878;8.050;2024-02-21T04:57:43;6.57;;;3.83;;
79670;SDS011;69137;50.878;8.050;2024-02-21T05:00:08;9.90;;;3.87;;
79670;SDS011;69137;50.878;8.050;2024-02-21T05:02:34;8.00;;;3.58;;
79670;SDS011;69137;50.878;8.050;2024-02-21T05:04:59;8.37;;;3.57;;
79670;SDS011;69137;50.878;8.050;2024-02-21T05:07:24;7.70;;;3.87;;
79670;SDS011;69137;50.878;8.050;2024-02-21T05:09:50;10.40;;;4.18;;
79670;SDS011;69137;50.878;8.050;2024-02-21T05:12:16;8.70;;;3.78;;
79670;SDS011;69137;50.878;8.050;2024-02-21T05:14:41;11.48;;;3.70;;
79670;SDS011;69137;50.878;8.050;2024-02-21T05:17:06;9.43;;;3.57;;
79670;SDS011;69137;50.878;8.050;2024-02-21T05:19:32;10.68;;;4.63;;
79670;SDS011;69137;50.878;8.050;2024-02-21T05:21:58;14.47;;;4.17;;
79670;SDS011;69137;50.878;8.050;2024-02-21T05:24:24;7.55;;;3.58;;
79670;SDS011;69137;50.878;8.050;2024-02-21T05:26:49;7.90;;;3.10;;
79670;SDS011;69137;50.878;8.050;2024-02-21T05:29:14;17.30;;;3.80;;
79670;SDS011;69137;50.878;8.050;2024-02-21T05:34:18;7.45;;;3.80;;
79670;SDS011;69137;50.878;8.050;2024-02-21T05:36:43;9.35;;;4.45;;
79670;SDS011;69137;50.878;8.050;2024-02-21T05:39:09;13.73;;;3.97;;
79670;SDS011;69137;50.878;8.050;2024-02-21T05:41:34;10.25;;;4.10;;
79670;SDS011;69137;50.878;8.050;2024-02-21T05:44:00;9.25;;;3.58;;
79670;SDS011;69137;50.878;8.050;2024-02-21T05:46:25;13.07;;;4.00;;
79670;SDS011;69137;50.878;8.050;2024-02-21T05:48:50;7.37;;;3.33;;
79670;SDS011;69137;50.878;8.050;2024-02-21T05:51:15;6.80;;;3.40;;
79670;SDS011;69137;50.878;8.050;2024-02-21T05:53:41;12.97;;;4.67;;
79670;SDS011;69137;50.878;8.050;2024-02-21T05:56:12;6.63;;;3.23;;
79670;SDS011;69137;50.878;8.050;2024-02-21T05:58:38;9.55;;;3.67;;
79670;SDS011;69137;50.878;8.050;2024-02-21T06:01:04;7.63;;;3.58;;
79670;SDS011;69137;50.878;8.050;2024-02-21T06:03:31;7.82;;;4.03;;
79670;SDS011;69137;50.878;8.050;2024-02-21T06:05:57;14.63;;;4.05;;
79670;SDS011;69137;50.878;8.050;2024-02-21T06:08:22;8.70;;;3.85;;
79670;SDS011;69137;50.878;8.050;2024-02-21T06:10:48;10.90;;;3.70;;
79670;SDS011;69137;50.878;8.050;2024-02-21T06:13:13;13.35;;;3.40;;
79670;SDS011;69137;50.878;8.050;2024-02-21T06:15:39;8.95;;;3.70;;
79670;SDS011;69137;50.878;8.050;2024-02-21T06:18:04;11.45;;;4.93;;
79670;SDS011;69137;50.878;8.050;2024-02-21T06:20:30;8.70;;;4.03;;
79670;SDS011;69137;50.878;8.050;2024-02-21T06:22:55;11.57;;;3.73;;
79670;SDS011;69137;50.878;8.050;2024-02-21T06:25:20;8.03;;;3.63;;
79670;SDS011;69137;50.878;8.050;2024-02-21T06:27:45;5.50;;;3.27;;
79670;SDS011;69137;50.878;8.050;2024-02-21T06:30:11;9.37;;;3.63;;
79670;SDS011;69137;50.878;8.050;2024-02-21T06:32:36;10.40;;;3.53;;
79670;SDS011;69137;50.878;8.050;2024-02-21T06:35:03;8.07;;;2.90;;
79670;SDS011;69137;50.878;8.050;2024-02-21T06:37:29;7.20;;;3.00;;
79670;SDS011;69137;50.878;8.050;2024-02-21T06:39:55;12.68;;;4.20;;
79670;SDS011;69137;50.878;8.050;2024-02-21T06:42:20;6.97;;;3.17;;
79670;SDS011;69137;50.878;8.050;2024-02-21T06:44:46;7.88;;;3.42;;
79670;SDS011;69137;50.878;8.050;2024-02-21T06:47:11;7.50;;;3.30;;
79670;SDS011;69137;50.878;8.050;2024-02-21T06:49:37;8.00;;;3.30;;
79670;SDS011;69137;50.878;8.050;2024-02-21T06:52:03;12.43;;;3.33;;
79670;SDS011;69137;50.878;8.050;2024-02-21T06:54:30;11.55;;;3.42;;
79670;SDS011;69137;50.878;8.050;2024-02-21T06:56:55;7.97;;;3.75;;
79670;SDS011;69137;50.878;8.050;2024-02-21T06:59:20;8.07;;;3.67;;
79670;SDS011;69137;50.878;8.050;2024-02-21T07:01:47;10.00;;;3.80;;
79670;SDS011;69137;50.878;8.050;2024-02-21T07:04:14;10.57;;;5.03;;
79670;SDS011;69137;50.878;8.050;2024-02-21T07:06:39;10.70;;;3.85;;
79670;SDS011;69137;50.878;8.050;2024-02-21T07:09:05;10.85;;;3.63;;
79670;SDS011;69137;50.878;8.050;2024-02-21T07:11:30;9.33;;;3.57;;
79670;SDS011;69137;50.878;8.050;2024-02-21T07:13:55;12.00;;;3.77;;
79670;SDS011;69137;50.878;8.050;2024-02-21T07:16:21;7.40;;;3.40;;
79670;SDS011;69137;50.878;8.050;2024-02-21T07:18:46;11.82;;;3.97;;
79670;SDS011;69137;50.878;8.050;2024-02-21T07:21:11;9.10;;;3.27;;
79670;SDS011;69137;50.878;8.050;2024-02-21T07:23:40;10.02;;;3.17;;
79670;SDS011;69137;50.878;8.050;2024-02-21T07:26:06;12.32;;;3.92;;
79670;SDS011;69137;50.878;8.050;2024-02-21T07:28:32;8.97;;;3.57;;
79670;SDS011;69137;50.878;8.050;2024-02-21T07:31:00;12.33;;;3.80;;
79670;SDS011;69137;50.878;8.050;2024-02-21T07:33:28;10.13;;;4.35;;
79670;SDS011;69137;50.878;8.050;2024-02-21T07:35:55;9.18;;;3.78;;
79670;SDS011;69137;50.878;8.050;2024-02-21T07:38:21;7.85;;;3.90;;
79670;SDS011;69137;50.878;8.050;2024-02-21T07:40:47;10.23;;;3.85;;
79670;SDS011;69137;50.878;8.050;2024-02-21T07:43:13;11.88;;;3.45;;
79670;SDS011;69137;50.878;8.050;2024-02-21T07:45:38;11.13;;;3.30;;
79670;SDS011;69137;50.878;8.050;2024-02-21T07:48:04;10.80;;;3.90;;
79670;SDS011;69137;50.878;8.050;2024-02-21T07:50:30;11.52;;;3.53;;
79670;SDS011;69137;50.878;8.050;2024-02-21T07:52:55;16.63;;;4.43;;
79670;SDS011;69137;50.878;8.050;2024-02-21T07:55:21;10.27;;;4.07;;
79670;SDS011;69137;50.878;8.050;2024-02-21T07:57:46;8.50;;;3.00;;
79670;SDS011;69137;50.878;8.050;2024-02-21T08:00:11;13.00;;;3.83;;
79670;SDS011;69137;50.878;8.050;2024-02-21T08:02:44;11.73;;;3.95;;
79670;SDS011;69137;50.878;8.050;2024-02-21T08:05:09;13.40;;;3.43;;
79670;SDS011;69137;50.878;8.050;2024-02-21T08:07:37;11.18;;;3.35;;
79670;SDS011;69137;50.878;8.050;2024-02-21T08:10:02;9.07;;;3.73;;
79670;SDS011;69137;50.878;8.050;2024-02-21T08:12:28;8.90;;;3.38;;
79670;SDS011;69137;50.878;8.050;2024-02-21T08:14:53;17.37;;;4.03;;
79670;SDS011;69137;50.878;8.050;2024-02-21T08:17:18;14.03;;;4.00;;
79670;SDS011;69137;50.878;8.050;2024-02-21T08:19:43;12.33;;;4.43;;
79670;SDS011;69137;50.878;8.050;2024-02-21T08:22:09;18.47;;;3.83;;
79670;SDS011;69137;50.878;8.050;2024-02-21T08:24:34;9.10;;;4.27;;
79670;SDS011;69137;50.878;8.050;2024-02-21T08:26:59;8.00;;;3.28;;
79670;SDS011;69137;50.878;8.050;2024-02-21T08:29:25;13.17;;;3.60;;
79670;SDS011;69137;50.878;8.050;2024-02-21T08:31:50;14.40;;;4.77;;
79670;SDS011;69137;50.878;8.050;2024-02-21T08:34:15;15.60;;;4.17;;
79670;SDS011;69137;50.878;8.050;2024-02-21T08:36:41;9.10;;;4.63;;
79670;SDS011;69137;50.878;8.050;2024-02-21T08:39:06;16.33;;;4.10;;
79670;SDS011;69137;50.878;8.050;2024-02-21T08:41:32;12.70;;;3.80;;
79670;SDS011;69137;50.878;8.050;2024-02-21T08:43:59;9.65;;;4.07;;
79670;SDS011;69137;50.878;8.050;2024-02-21T08:46:25;9.20;;;4.30;;
79670;SDS011;69137;50.878;8.050;2024-02-21T08:48:51;7.60;;;3.35;;
79670;SDS011;69137;50.878;8.050;2024-02-21T08:51:17;15.48;;;5.30;;
79670;SDS011;69137;50.878;8.050;2024-02-21T08:53:46;15.18;;;5.25;;
79670;SDS011;69137;50.878;8.050;2024-02-21T08:56:13;8.07;;;3.50;;
79670;SDS011;69137;50.878;8.050;2024-02-21T08:58:39;16.77;;;4.85;;
79670;SDS011;69137;50.878;8.050;2024-02-21T09:01:05;16.92;;;5.22;;
79670;SDS011;69137;50.878;8.050;2024-02-21T09:03:35;14.00;;;4.75;;
79670;SDS011;69137;50.878;8.050;2024-02-21T09:06:06;12.75;;;4.00;;
79670;SDS011;69137;50.878;8.050;2024-02-21T09:08:32;13.10;;;4.28;;
79670;SDS011;69137;50.878;8.050;2024-02-21T09:10:59;12.13;;;4.25;;
79670;SDS011;69137;50.878;8.050;2024-02-21T09:13:24;10.30;;;3.60;;
79670;SDS011;69137;50.878;8.050;2024-02-21T09:15:50;12.43;;;4.20;;
79670;SDS011;69137;50.878;8.050;2024-02-21T09:18:15;11.93;;;4.50;;
79670;SDS011;69137;50.878;8.050;2024-02-21T09:20:41;15.73;;;6.20;;
79670;SDS011;69137;50.878;8.050;2024-02-21T09:23:07;14.63;;;4.07;;
79670;SDS011;69137;50.878;8.050;2024-02-21T09:25:32;15.60;;;4.23;;
79670;SDS011;69137;50.878;8.050;2024-02-21T09:27:58;9.90;;;4.47;;
79670;SDS011;69137;50.878;8.050;2024-02-21T09:30:23;13.73;;;4.03;;
79670;SDS011;69137;50.878;8.050;2024-02-21T09:32:49;15.43;;;4.72;;
79670;SDS011;69137;50.878;8.050;2024-02-21T09:35:14;11.13;;;4.33;;
79670;SDS011;69137;50.878;8.050;2024-02-21T09:37:40;10.63;;;4.03;;
79670;SDS011;69137;50.878;8.050;2024-02-21T09:40:05;10.30;;;4.33;;
79670;SDS011;69137;50.878;8.050;2024-02-21T09:42:40;15.70;;;4.70;;
79670;SDS011;69137;50.878;8.050;2024-02-21T09:50:26;12.32;;;4.80;;
79670;SDS011;69137;50.878;8.050;2024-02-21T09:52:52;13.27;;;4.22;;
79670;SDS011;69137;50.878;8.050;2024-02-21T09:55:19;10.40;;;3.65;;
79670;SDS011;69137;50.878;8.050;2024-02-21T09:57:45;11.63;;;3.45;;
79670;SDS011;69137;50.878;8.050;2024-02-21T10:00:11;9.83;;;3.77;;
79670;SDS011;69137;50.878;8.050;2024-02-21T10:02:38;13.82;;;3.63;;
79670;SDS011;69137;50.878;8.050;2024-02-21T10:05:04;10.70;;;3.90;;
79670;SDS011;69137;50.878;8.050;2024-02-21T10:07:33;7.38;;;3.70;;
79670;SDS011;69137;50.878;8.050;2024-02-21T10:10:02;7.53;;;3.17;;
79670;SDS011;69137;50.878;8.050;2024-02-21T10:12:28;10.00;;;3.60;;
79670;SDS011;69137;50.878;8.050;2024-02-21T10:15:03;10.60;;;5.20;;
79670;SDS011;69137;50.878;8.050;2024-02-21T10:17:30;11.38;;;3.58;;
79670;SDS011;69137;50.878;8.050;2024-02-21T10:20:06;9.88;;;4.13;;
79670;SDS011;69137;50.878;8.050;2024-02-21T10:22:33;9.43;;;4.18;;
79670;SDS011;69137;50.878;8.050;2024-02-21T10:25:07;8.32;;;3.83;;
79670;SDS011;69137;50.878;8.050;2024-02-21T10:27:33;15.10;;;4.53;;
79670;SDS011;69137;50.878;8.050;2024-02-21T10:29:58;10.33;;;4.17;;
79670;SDS011;69137;50.878;8.050;2024-02-21T10:32:24;13.60;;;3.73;;
79670;SDS011;69137;50.878;8.050;2024-02-21T10:35:00;9.77;;;3.58;;
79670;SDS011;69137;50.878;8.050;2024-02-21T10:37:26;9.27;;;4.50;;
79670;SDS011;69137;50.878;8.050;2024-02-21T10:39:51;13.73;;;4.27;;
79670;SDS011;69137;50.878;8.050;2024-02-21T10:42:18;14.50;;;4.25;;
79670;SDS011;69137;50.878;8.050;2024-02-21T10:47:16;7.18;;;3.00;;
79670;SDS011;69137;50.878;8.050;2024-02-21T10:49:46;8.32;;;3.45;;
79670;SDS011;69137;50.878;8.050;2024-02-21T10:52:27;7.28;;;3.38;;
79670;SDS011;69137;50.878;8.050;2024-02-21T10:55:16;16.67;;;4.43;;
79670;SDS011;69137;50.878;8.050;2024-02-21T10:58:06;7.10;;;3.10;;
79670;SDS011;69137;50.878;8.050;2024-02-21T11:00:34;10.35;;;3.50;;
79670;SDS011;69137;50.878;8.050;2024-02-21T11:03:01;8.43;;;3.38;;
79670;SDS011;69137;50.878;8.050;2024-02-21T11:05:26;7.05;;;3.00;;
79670;SDS011;69137;50.878;8.050;2024-02-21T11:07:53;12.23;;;3.13;;
79670;SDS011;69137;50.878;8.050;2024-02-21T11:10:25;7.63;;;3.17;;
79670;SDS011;69137;50.878;8.050;2024-02-21T11:13:07;10.18;;;3.13;;
79670;SDS011;69137;50.878;8.050;2024-02-21T11:15:33;9.45;;;3.45;;
79670;SDS011;69137;50.878;8.050;2024-02-21T11:17:58;11.57;;;3.42;;
79670;SDS011;69137;50.878;8.050;2024-02-21T11:20:36;11.50;;;3.20;;
79670;SDS011;69137;50.878;8.050;2024-02-21T11:23:02;7.95;;;3.10;;
79670;SDS011;69137;50.878;8.050;2024-02-21T11:25:28;12.15;;;4.30;;
79670;SDS011;69137;50.878;8.050;2024-02-21T11:30:32;7.80;;;3.25;;
79670;SDS011;69137;50.878;8.050;2024-02-21T11:33:06;6.97;;;3.28;;
79670;SDS011;69137;50.878;8.050;2024-02-21T11:35:35;8.50;;;2.95;;
79670;SDS011;69137;50.878;8.050;2024-02-21T11:38:11;8.18;;;3.08;;
79670;SDS011;69137;50.878;8.050;2024-02-21T11:40:40;7.35;;;2.78;;
79670;SDS011;69137;50.878;8.050;2024-02-21T11:43:06;6.07;;;3.10;;
79670;SDS011;69137;50.878;8.050;2024-02-21T11:45:32;9.68;;;3.28;;
79670;SDS011;69137;50.878;8.050;2024-02-21T11:47:58;10.00;;;3.33;;
79670;SDS011;69137;50.878;8.050;2024-02-21T11:50:25;7.80;;;3.13;;
79670;SDS011;69137;50.878;8.050;2024-02-21T11:52:51;8.85;;;3.25;;
79670;SDS011;69137;50.878;8.050;2024-02-21T11:55:19;10.10;;;3.25;;
79670;SDS011;69137;50.878;8.050;2024-02-21T11:57:44;7.73;;;3.07;;
79670;SDS011;69137;50.878;8.050;2024-02-21T12:00:16;8.65;;;3.50;;
79670;SDS011;69137;50.878;8.050;2024-02-21T12:02:45;7.90;;;2.85;;
79670;SDS011;69137;50.878;8.050;2024-02-21T12:05:11;11.38;;;3.75;;
79670;SDS011;69137;50.878;8.050;2024-02-21T12:07:37;8.32;;;3.15;;
79670;SDS011;69137;50.878;8.050;2024-02-21T12:10:08;6.28;;;2.83;;
79670;SDS011;69137;50.878;8.050;2024-02-21T12:12:35;4.63;;;2.92;;
79670;SDS011;69137;50.878;8.050;2024-02-21T12:15:02;6.95;;;3.38;;
79670;SDS011;69137;50.878;8.050;2024-02-21T12:17:29;13.80;;;3.75;;
79670;SDS011;69137;50.878;8.050;2024-02-21T12:19:54;8.27;;;3.60;;
79670;SDS011;69137;50.878;8.050;2024-02-21T12:22:21;7.93;;;3.35;;
79670;SDS011;69137;50.878;8.050;2024-02-21T12:24:47;8.20;;;3.27;;
79670;SDS011;69137;50.878;8.050;2024-02-21T12:27:13;13.48;;;3.75;;
79670;SDS011;69137;50.878;8.050;2024-02-21T12:29:38;7.13;;;3.13;;
79670;SDS011;69137;50.878;8.050;2024-02-21T12:32:04;5.50;;;2.67;;
79670;SDS011;69137;50.878;8.050;2024-02-21T12:34:29;6.40;;;2.70;;
79670;SDS011;69137;50.878;8.050;2024-02-21T12:36:57;5.55;;;2.50;;
79670;SDS011;69137;50.878;8.050;2024-02-21T12:39:23;9.15;;;3.08;;
79670;SDS011;69137;50.878;8.050;2024-02-21T12:41:49;7.13;;;3.63;;
79670;SDS011;69137;50.878;8.050;2024-02-21T12:44:14;5.53;;;2.57;;
79670;SDS011;69137;50.878;8.050;2024-02-21T12:46:41;6.20;;;3.25;;
79670;SDS011;69137;50.878;8.050;2024-02-21T12:49:06;9.70;;;3.40;;
79670;SDS011;69137;50.878;8.050;2024-02-21T12:51:35;12.13;;;4.85;;
79670;SDS011;69137;50.878;8.050;2024-02-21T12:54:00;6.55;;;2.33;;
79670;SDS011;69137;50.878;8.050;2024-02-21T12:56:28;7.30;;;2.25;;
79670;SDS011;69137;50.878;8.050;2024-02-21T12:58:54;5.90;;;2.22;;
79670;SDS011;69137;50.878;8.050;2024-02-21T13:01:20;5.60;;;2.65;;
79670;SDS011;69137;50.878;8.050;2024-02-21T13:03:46;6.30;;;2.15;;
79670;SDS011;69137;50.878;8.050;2024-02-21T13:06:11;9.25;;;2.53;;
79670;SDS011;69137;50.878;8.050;2024-02-21T13:08:37;8.45;;;3.00;;
79670;SDS011;69137;50.878;8.050;2024-02-21T13:11:03;6.45;;;2.53;;
79670;SDS011;69137;50.878;8.050;2024-02-21T13:13:29;5.38;;;2.28;;
79670;SDS011;69137;50.878;8.050;2024-02-21T13:15:55;10.60;;;3.63;;
79670;SDS011;69137;50.878;8.050;2024-02-21T13:18:20;8.68;;;3.08;;
79670;SDS011;69137;50.878;8.050;2024-02-21T13:20:45;6.37;;;2.80;;
79670;SDS011;69137;50.878;8.050;2024-02-21T13:23:10;5.63;;;2.57;;
79670;SDS011;69137;50.878;8.050;2024-02-21T13:25:36;8.50;;;2.93;;
79670;SDS011;69137;50.878;8.050;2024-02-21T13:28:01;4.57;;;2.20;;
79670;SDS011;69137;50.878;8.050;2024-02-21T13:30:28;4.75;;;2.03;;
79670;SDS011;69137;50.878;8.050;2024-02-21T13:32:53;10.35;;;3.03;;
79670;SDS011;69137;50.878;8.050;2024-02-21T13:35:19;6.38;;;2.40;;
79670;SDS011;69137;50.878;8.050;2024-02-21T13:37:45;4.97;;;2.22;;
79670;SDS011;69137;50.878;8.050;2024-02-21T13:40:11;6.47;;;2.10;;
79670;SDS011;69137;50.878;8.050;2024-02-21T13:42:38;5.68;;;1.80;;
79670;SDS011;69137;50.878;8.050;2024-02-21T13:45:04;7.65;;;2.38;;
79670;SDS011;69137;50.878;8.050;2024-02-21T13:47:31;5.90;;;2.65;;
79670;SDS011;69137;50.878;8.050;2024-02-21T13:49:57;9.00;;;2.80;;
79670;SDS011;69137;50.878;8.050;2024-02-21T13:52:22;4.07;;;1.80;;
79670;SDS011;69137;50.878;8.050;2024-02-21T13:54:50;4.63;;;2.03;;
79670;SDS011;69137;50.878;8.050;2024-02-21T13:57:16;6.90;;;2.43;;
79670;SDS011;69137;50.878;8.050;2024-02-21T13:59:41;7.33;;;2.57;;
79670;SDS011;69137;50.878;8.050;2024-02-21T14:02:07;7.90;;;2.25;;
79670;SDS011;69137;50.878;8.050;2024-02-21T14:04:33;5.57;;;1.77;;
79670;SDS011;69137;50.878;8.050;2024-02-21T14:06:58;4.38;;;1.52;;
79670;SDS011;69137;50.878;8.050;2024-02-21T14:09:24;6.65;;;2.22;;
79670;SDS011;69137;50.878;8.050;2024-02-21T14:11:49;3.72;;;1.75;;
79670;SDS011;69137;50.878;8.050;2024-02-21T14:14:14;6.20;;;1.80;;
79670;SDS011;69137;50.878;8.050;2024-02-21T14:16:40;3.25;;;1.48;;
79670;SDS011;69137;50.878;8.050;2024-02-21T14:19:05;6.43;;;1.73;;
79670;SDS011;69137;50.878;8.050;2024-02-21T14:21:33;4.05;;;1.85;;
79670;SDS011;69137;50.878;8.050;2024-02-21T14:23:58;11.55;;;2.05;;
79670;SDS011;69137;50.878;8.050;2024-02-21T14:26:26;4.97;;;1.90;;
79670;SDS011;69137;50.878;8.050;2024-02-21T14:28:52;4.45;;;1.67;;
79670;SDS011;69137;50.878;8.050;2024-02-21T14:31:17;10.67;;;1.70;;
79670;SDS011;69137;50.878;8.050;2024-02-21T14:33:42;4.17;;;1.53;;
79670;SDS011;69137;50.878;8.050;2024-02-21T14:36:08;6.63;;;2.27;;
79670;SDS011;69137;50.878;8.050;2024-02-21T14:38:33;4.15;;;1.70;;
79670;SDS011;69137;50.878;8.050;2024-02-21T14:41:00;4.63;;;2.00;;
79670;SDS011;69137;50.878;8.050;2024-02-21T14:43:25;6.03;;;2.03;;
79670;SDS011;69137;50.878;8.050;2024-02-21T14:45:51;7.85;;;1.83;;
79670;SDS011;69137;50.878;8.050;2024-02-21T14:48:20;8.02;;;2.17;;